createdAt,value
2023-05-23T00:08:26.715Z,15.81
2023-05-23T00:18:30.689Z,15.70
2023-05-23T00:28:34.954Z,15.53
2023-05-23T00:38:37.649Z,15.22
2023-05-23T00:48:41.811Z,15.16
2023-05-23T00:58:44.709Z,15.15
2023-05-23T01:08:48.860Z,15.38
2023-05-23T01:18:59.059Z,15.62
2023-05-23T01:29:10.564Z,15.65
2023-05-23T01:39:13.469Z,15.65
2023-05-23T01:49:19.236Z,15.68
2023-05-23T01:59:22.252Z,15.49
2023-05-23T02:09:26.377Z,15.48
2023-05-23T02:19:29.119Z,15.39
2023-05-23T02:29:33.188Z,15.41
2023-05-23T02:39:36.874Z,15.33
2023-05-23T02:49:41.002Z,15.12
2023-05-23T02:59:43.745Z,15.16
2023-05-23T03:09:47.779Z,14.79
2023-05-23T03:19:50.460Z,14.91
2023-05-23T03:29:54.420Z,14.81
2023-05-23T03:39:57.354Z,14.68
2023-05-23T03:50:01.377Z,14.66
2023-05-23T04:00:06.140Z,14.39
2023-05-23T04:10:11.127Z,14.37
2023-05-23T04:20:13.868Z,14.22
2023-05-23T04:30:18.237Z,14.21
2023-05-23T04:40:21.072Z,13.95
2023-05-23T04:50:25.585Z,13.92
2023-05-23T05:00:28.316Z,13.78
2023-05-23T05:10:32.338Z,13.90
2023-05-23T05:20:35.078Z,13.40
2023-05-23T05:30:39.446Z,13.39
2023-05-23T05:40:42.627Z,13.46
2023-05-23T05:50:46.908Z,13.30
2023-05-23T06:00:49.691Z,13.46
2023-05-23T06:10:53.712Z,13.51
2023-05-23T06:20:56.989Z,13.59
2023-05-23T06:31:01.085Z,13.44
2023-05-23T06:41:04.367Z,13.07
2023-05-23T06:51:08.552Z,13.19
2023-05-23T07:01:11.773Z,13.00
2023-05-23T07:11:15.883Z,13.01
2023-05-23T07:21:18.544Z,12.93
2023-05-23T07:31:22.593Z,13.41
2023-05-23T07:41:25.326Z,13.48
2023-05-23T07:51:29.452Z,13.39
2023-05-23T08:01:32.348Z,13.92
2023-05-23T08:11:36.887Z,13.94
2023-05-23T08:21:39.669Z,14.15
2023-05-23T08:31:43.824Z,14.55
2023-05-23T08:41:46.890Z,15.28
2023-05-23T08:51:55.577Z,15.24
2023-05-23T09:01:59.166Z,15.49
2023-05-23T09:12:03.420Z,15.73
2023-05-23T09:22:06.538Z,15.90
2023-05-23T09:32:14.391Z,15.86
2023-05-23T09:42:22.484Z,16.75
2023-05-23T09:52:26.957Z,15.86
2023-05-23T10:02:55.005Z,16.58
2023-05-23T10:13:01.049Z,16.79
2023-05-23T10:23:05.309Z,16.37
2023-05-23T10:33:11.647Z,17.24
2023-05-23T10:43:21.912Z,17.69
2023-05-23T10:53:26.587Z,17.43
2023-05-23T11:03:37.927Z,16.98
2023-05-23T11:14:00.243Z,16.35
2023-05-23T11:24:03.246Z,17.56
2023-05-23T11:34:08.585Z,17.76
2023-05-23T11:44:14.222Z,17.20
2023-05-23T11:54:18.266Z,18.87
2023-05-23T12:04:21.066Z,16.28
2023-05-23T12:14:25.269Z,16.63
2023-05-23T12:24:28.922Z,19.44
2023-05-23T12:34:33.016Z,20.13
2023-05-23T12:44:35.793Z,17.34
2023-05-23T12:54:39.826Z,22.80
2023-05-23T13:04:42.586Z,21.57
2023-05-23T13:14:46.652Z,22.07
2023-05-23T13:24:49.405Z,23.53
2023-05-23T13:34:53.476Z,24.57
2023-05-23T13:44:56.204Z,22.29
2023-05-23T13:55:01.596Z,22.22
2023-05-23T14:05:04.930Z,20.54
2023-05-23T14:15:10.675Z,21.06
2023-05-23T14:25:13.407Z,19.91
2023-05-23T14:35:17.561Z,20.13
2023-05-23T14:45:20.514Z,19.66
2023-05-23T14:55:24.641Z,18.97
2023-05-23T15:05:27.333Z,19.10
2023-05-23T15:15:37.283Z,17.56
2023-05-23T15:25:49.428Z,17.83
2023-05-23T15:35:54.785Z,19.41
2023-05-23T15:45:57.495Z,18.43
2023-05-23T15:56:01.762Z,16.27
2023-05-23T16:06:04.693Z,16.34
2023-05-23T16:16:08.772Z,16.69
2023-05-23T16:26:11.489Z,16.07
2023-05-23T16:36:15.509Z,17.11
2023-05-23T16:46:20.441Z,16.55
2023-05-23T16:56:24.861Z,16.63
2023-05-23T17:06:27.557Z,14.80
2023-05-23T17:16:33.422Z,15.08
2023-05-23T17:26:36.437Z,15.42
2023-05-23T17:36:40.811Z,15.85
2023-05-23T17:46:43.685Z,16.26
2023-05-23T17:56:48.096Z,15.34
2023-05-23T18:06:50.793Z,14.93
2023-05-23T18:16:54.957Z,14.38
2023-05-23T18:26:58.339Z,13.83
2023-05-23T18:37:03.189Z,13.19
2023-05-23T18:47:06.479Z,13.02
2023-05-23T18:57:11.026Z,12.74
2023-05-23T19:07:14.870Z,12.56
2023-05-23T19:17:19.480Z,12.38
2023-05-23T19:27:22.199Z,12.25
2023-05-23T19:37:26.309Z,12.01
2023-05-23T19:47:30.850Z,11.93
2023-05-23T19:57:35.274Z,11.82
2023-05-23T20:07:37.925Z,11.85
2023-05-23T20:17:42.491Z,11.73
2023-05-23T20:27:45.368Z,11.52
2023-05-23T20:37:51.265Z,11.55
2023-05-23T20:47:54.068Z,11.30
2023-05-23T20:57:58.161Z,11.09
2023-05-23T21:08:00.832Z,10.89
2023-05-23T21:18:05.040Z,10.85
2023-05-23T21:28:07.819Z,10.65
2023-05-23T21:38:11.905Z,10.49
2023-05-23T21:48:14.629Z,10.38
2023-05-23T21:58:18.829Z,10.37
2023-05-23T22:08:21.566Z,10.25
2023-05-23T22:18:28.903Z,10.07
2023-05-23T22:28:35.342Z,9.99
2023-05-23T22:38:39.386Z,10.00
2023-05-23T22:48:42.077Z,9.89
2023-05-23T22:58:46.223Z,9.85
2023-05-23T23:08:49.987Z,9.74
2023-05-23T23:18:54.017Z,9.77
2023-05-23T23:28:56.657Z,9.68
2023-05-23T23:39:00.746Z,9.63
2023-05-23T23:49:03.434Z,9.50
2023-05-23T23:59:07.470Z,9.41
